Time;durP1;ratioP1;P1;durP2;ratioP2;P2;SDS_P1;SDS_P2;PMS_P1;PMS_P2;Temp;Humidity;BMP_temperature;BMP_pressure;BME280_temperature;BME280_humidity;BME280_pressure;Samples;Min_cycle;Max_cycle;Signal;HPM_P1;HPM_P2
2020/12/22 00:01:16;;;;;;;5.65;4.13;;;;;;;;;;4992947;28;20026;-72
2020/12/22 00:03:42;;;;;;;5.35;4.00;;;;;;;;;;4992744;28;20057;-73
2020/12/22 00:06:09;;;;;;;4.82;3.42;;;;;;;;;;4992932;28;20481;-72
2020/12/22 00:08:35;;;;;;;6.18;3.30;;;;;;;;;;4994465;28;20034;-72
2020/12/22 00:11:01;;;;;;;6.10;4.00;;;;;;;;;;4996824;28;20031;-72
2020/12/22 00:13:27;;;;;;;4.93;3.42;;;;;;;;;;4996963;28;20018;-72
2020/12/22 00:15:53;;;;;;;4.65;3.40;;;;;;;;;;4996739;28;20022;-71
2020/12/22 00:18:19;;;;;;;5.63;4.00;;;;;;;;;;4995456;28;20109;-72
2020/12/22 00:20:45;;;;;;;6.63;3.70;;;;;;;;;;4995447;28;20093;-72
2020/12/22 00:23:11;;;;;;;4.47;3.42;;;;;;;;;;4996697;28;20038;-73
2020/12/22 00:25:44;;;;;;;5.22;3.33;;;;;;;;;;4996577;28;20370;-72
2020/12/22 00:28:11;;;;;;;4.15;2.80;;;;;;;;;;4996551;28;20470;-73
2020/12/22 00:30:37;;;;;;;3.83;2.75;;;;;;;;;;4996561;28;20536;-71
2020/12/22 00:33:03;;;;;;;3.95;3.00;;;;;;;;;;4996550;28;20208;-72
2020/12/22 00:35:30;;;;;;;6.15;3.42;;;;;;;;;;4995814;28;20098;-72
2020/12/22 00:37:56;;;;;;;3.47;2.83;;;;;;;;;;4996662;28;20022;-72
2020/12/22 00:40:22;;;;;;;7.22;3.13;;;;;;;;;;4996431;28;20027;-72
2020/12/22 00:42:48;;;;;;;4.13;2.80;;;;;;;;;;4996191;28;20088;-72
2020/12/22 00:45:14;;;;;;;3.38;2.58;;;;;;;;;;4996170;28;20026;-72
2020/12/22 00:47:40;;;;;;;3.05;2.10;;;;;;;;;;4996287;28;20030;-72
2020/12/22 00:50:06;;;;;;;3.17;2.33;;;;;;;;;;4996245;28;20025;-72
2020/12/22 00:52:32;;;;;;;4.25;2.30;;;;;;;;;;4996248;28;20481;-72
2020/12/22 00:54:58;;;;;;;2.28;2.03;;;;;;;;;;4996373;28;20030;-72
2020/12/22 00:57:24;;;;;;;2.67;1.95;;;;;;;;;;4996282;28;20025;-72
2020/12/22 00:59:50;;;;;;;2.78;2.05;;;;;;;;;;4995910;28;20077;-73
2020/12/22 01:02:16;;;;;;;4.00;1.90;;;;;;;;;;4995911;28;20034;-72
2020/12/22 01:04:42;;;;;;;1.98;1.63;;;;;;;;;;4995761;28;20023;-71
2020/12/22 01:07:08;;;;;;;2.05;1.60;;;;;;;;;;4996027;28;20026;-72
2020/12/22 01:09:34;;;;;;;2.10;1.73;;;;;;;;;;4995868;28;20022;-72
2020/12/22 01:12:00;;;;;;;1.33;1.23;;;;;;;;;;4995778;28;20022;-72
2020/12/22 01:14:26;;;;;;;2.13;1.50;;;;;;;;;;4995956;28;20049;-72
2020/12/22 01:16:56;;;;;;;1.63;1.30;;;;;;;;;;4995755;28;20386;-72
2020/12/22 01:19:22;;;;;;;2.13;1.50;;;;;;;;;;4995433;28;20030;-72
2020/12/22 01:21:51;;;;;;;1.92;1.35;;;;;;;;;;4995387;28;20018;-73
2020/12/22 01:24:17;;;;;;;1.50;1.40;;;;;;;;;;4995480;28;20552;-72
2020/12/22 01:26:43;;;;;;;1.75;1.17;;;;;;;;;;4995451;28;20517;-72
2020/12/22 01:29:09;;;;;;;1.23;1.13;;;;;;;;;;4995431;28;20038;-72
2020/12/22 01:31:35;;;;;;;1.35;1.20;;;;;;;;;;4995354;28;20490;-73
2020/12/22 01:34:01;;;;;;;1.60;1.30;;;;;;;;;;4995520;28;20034;-72
2020/12/22 01:36:28;;;;;;;1.40;1.17;;;;;;;;;;4995557;28;20023;-72
2020/12/22 01:38:54;;;;;;;2.25;1.23;;;;;;;;;;4995404;28;20033;-72
2020/12/22 01:41:20;;;;;;;1.35;1.00;;;;;;;;;;4995185;28;20019;-72
2020/12/22 01:44:07;;;;;;;1.30;1.02;;;;;;;;;;4995113;28;20045;-72
2020/12/22 01:46:34;;;;;;;1.30;1.08;;;;;;;;;;4995127;28;20027;-72
2020/12/22 01:49:01;;;;;;;1.00;0.90;;;;;;;;;;4995357;28;20030;-71
2020/12/22 01:51:31;;;;;;;1.10;0.90;;;;;;;;;;4995596;28;20438;-71
2020/12/22 01:53:57;;;;;;;0.65;0.60;;;;;;;;;;4995232;28;20026;-72
2020/12/22 01:56:24;;;;;;;1.05;0.90;;;;;;;;;;4995007;28;20022;-72
2020/12/22 01:58:50;;;;;;;0.63;0.60;;;;;;;;;;4994991;28;20038;-72
2020/12/22 02:01:17;;;;;;;0.80;0.80;;;;;;;;;;4995007;28;20026;-71
2020/12/22 02:03:43;;;;;;;0.70;0.60;;;;;;;;;;4994861;28;20038;-72
2020/12/22 02:06:09;;;;;;;0.70;0.60;;;;;;;;;;4994977;28;20020;-71
2020/12/22 02:08:35;;;;;;;1.45;0.40;;;;;;;;;;4993525;28;20476;-71
2020/12/22 02:11:01;;;;;;;0.57;0.43;;;;;;;;;;4994852;28;20061;-71
2020/12/22 02:13:27;;;;;;;0.52;0.50;;;;;;;;;;4995019;28;20165;-72
2020/12/22 02:15:53;;;;;;;0.60;0.60;;;;;;;;;;4994695;28;20030;-72
2020/12/22 02:18:19;;;;;;;0.45;0.45;;;;;;;;;;4994667;28;20023;-72
2020/12/22 02:20:45;;;;;;;0.50;0.50;;;;;;;;;;4994818;28;20034;-72
2020/12/22 02:23:12;;;;;;;0.40;0.40;;;;;;;;;;4994588;28;20046;-72
2020/12/22 02:25:45;;;;;;;0.30;0.30;;;;;;;;;;4994548;28;20095;-72
2020/12/22 02:28:11;;;;;;;0.80;0.40;;;;;;;;;;4994588;28;20026;-71
2020/12/22 02:30:37;;;;;;;0.32;0.32;;;;;;;;;;4994404;28;20079;-73
2020/12/22 02:33:03;;;;;;;0.30;0.30;;;;;;;;;;4993490;28;20026;-72
2020/12/22 02:35:29;;;;;;;0.30;0.30;;;;;;;;;;4994206;28;20469;-72
2020/12/22 02:37:55;;;;;;;0.30;0.30;;;;;;;;;;4994695;28;20422;-72
2020/12/22 02:40:21;;;;;;;1.27;0.47;;;;;;;;;;4994486;28;20045;-73
2020/12/22 02:42:48;;;;;;;0.32;0.32;;;;;;;;;;4994183;28;20034;-72
2020/12/22 02:45:14;;;;;;;0.20;0.20;;;;;;;;;;5004599;28;20022;-72
2020/12/22 02:47:40;;;;;;;0.40;0.30;;;;;;;;;;5002923;28;20502;-72
2020/12/22 02:50:06;;;;;;;0.35;0.35;;;;;;;;;;5003426;28;20054;-72
2020/12/22 02:52:32;;;;;;;0.30;0.30;;;;;;;;;;5004506;28;20026;-72
2020/12/22 02:54:58;;;;;;;0.30;0.30;;;;;;;;;;5002630;28;20029;-72
2020/12/22 02:57:24;;;;;;;0.20;0.20;;;;;;;;;;5003739;28;20030;-71
2020/12/22 02:59:50;;;;;;;0.47;0.30;;;;;;;;;;5003954;28;20122;-72
2020/12/22 03:02:16;;;;;;;1.17;0.20;;;;;;;;;;4992528;28;20030;-72
2020/12/22 03:04:42;;;;;;;0.20;0.20;;;;;;;;;;5003744;28;20076;-73
2020/12/22 03:07:08;;;;;;;0.20;0.20;;;;;;;;;;5003614;28;20018;-72
2020/12/22 03:09:34;;;;;;;0.20;0.20;;;;;;;;;;5002113;28;20021;-72
2020/12/22 03:12:00;;;;;;;0.32;0.22;;;;;;;;;;5004733;28;20462;-73
2020/12/22 03:14:26;;;;;;;1.38;0.25;;;;;;;;;;5013252;28;20108;-72
2020/12/22 03:16:52;;;;;;;0.30;0.30;;;;;;;;;;5013048;28;20022;-73
2020/12/22 03:19:18;;;;;;;0.32;0.30;;;;;;;;;;5012988;28;20030;-72
2020/12/22 03:21:44;;;;;;;0.20;0.20;;;;;;;;;;5013080;28;20076;-72
2020/12/22 03:24:10;;;;;;;0.20;0.20;;;;;;;;;;5013045;28;20025;-73
2020/12/22 03:26:36;;;;;;;0.20;0.20;;;;;;;;;;5013012;28;20018;-73
2020/12/22 03:29:02;;;;;;;0.30;0.30;;;;;;;;;;4995451;28;20394;-73
2020/12/22 03:31:28;;;;;;;0.40;0.25;;;;;;;;;;5013155;28;20044;-73
2020/12/22 03:33:54;;;;;;;0.20;0.20;;;;;;;;;;5013049;28;20373;-72
2020/12/22 03:36:20;;;;;;;0.10;0.10;;;;;;;;;;5012898;28;20022;-72
2020/12/22 03:38:47;;;;;;;0.20;0.20;;;;;;;;;;5012806;28;20037;-72
2020/12/22 03:41:13;;;;;;;0.10;0.10;;;;;;;;;;5012920;28;20033;-73
2020/12/22 03:43:39;;;;;;;0.25;0.20;;;;;;;;;;5012430;28;20034;-73
2020/12/22 03:46:07;;;;;;;0.20;0.20;;;;;;;;;;5012724;28;20109;-73
2020/12/22 03:48:33;;;;;;;0.17;0.17;;;;;;;;;;5012687;28;20371;-73
2020/12/22 03:50:59;;;;;;;0.20;0.20;;;;;;;;;;4995177;28;20026;-73
2020/12/22 03:53:25;;;;;;;0.88;0.20;;;;;;;;;;5012873;28;20018;-72
2020/12/22 03:55:51;;;;;;;0.20;0.20;;;;;;;;;;5012604;28;20026;-73
2020/12/22 03:58:17;;;;;;;0.60;0.30;;;;;;;;;;5012482;28;20034;-73
2020/12/22 04:00:43;;;;;;;0.10;0.10;;;;;;;;;;5012617;28;20026;-73
2020/12/22 04:03:09;;;;;;;0.13;0.13;;;;;;;;;;5012684;28;20033;-73
2020/12/22 04:05:35;;;;;;;0.10;0.10;;;;;;;;;;5012591;28;20022;-73
2020/12/22 04:08:01;;;;;;;0.10;0.10;;;;;;;;;;4995137;28;20037;-73
2020/12/22 04:10:27;;;;;;;0.20;0.10;;;;;;;;;;5012735;28;20373;-73
2020/12/22 04:12:53;;;;;;;0.20;0.17;;;;;;;;;;5012402;28;20029;-73
2020/12/22 04:15:19;;;;;;;0.20;0.10;;;;;;;;;;5011987;28;20521;-73
2020/12/22 04:17:46;;;;;;;0.13;0.13;;;;;;;;;;5012420;28;20033;-72
2020/12/22 04:20:12;;;;;;;0.30;0.20;;;;;;;;;;5004068;28;20428;-72
2020/12/22 04:22:38;;;;;;;0.40;0.25;;;;;;;;;;5011447;28;20030;-72
2020/12/22 04:25:05;;;;;;;0.10;0.10;;;;;;;;;;5011745;28;20038;-72
2020/12/22 04:27:31;;;;;;;0.95;0.20;;;;;;;;;;5012168;28;20022;-72
2020/12/22 04:29:57;;;;;;;0.50;0.45;;;;;;;;;;5012491;28;20536;-72
2020/12/22 04:32:23;;;;;;;1.17;0.40;;;;;;;;;;5011948;28;20371;-72
2020/12/22 04:34:50;;;;;;;0.10;0.10;;;;;;;;;;5012155;28;20101;-72
2020/12/22 04:37:16;;;;;;;0.08;0.08;;;;;;;;;;5011983;28;20427;-72
2020/12/22 04:39:42;;;;;;;0.30;0.30;;;;;;;;;;5010824;28;20026;-72
2020/12/22 04:42:09;;;;;;;0.10;0.10;;;;;;;;;;5011901;28;20026;-71
2020/12/22 04:44:35;;;;;;;0.10;0.10;;;;;;;;;;5012104;28;20033;-72
2020/12/22 04:47:05;;;;;;;0.40;0.17;;;;;;;;;;5011339;28;20026;-72
2020/12/22 04:49:32;;;;;;;0.05;0.05;;;;;;;;;;5011739;28;20033;-72
2020/12/22 04:51:58;;;;;;;0.20;0.10;;;;;;;;;;5012008;28;20050;-72
2020/12/22 04:54:25;;;;;;;0.10;0.10;;;;;;;;;;5012096;28;20461;-72
2020/12/22 04:56:52;;;;;;;0.10;0.10;;;;;;;;;;5015716;28;20072;-72
2020/12/22 04:59:18;;;;;;;0.30;0.30;;;;;;;;;;5015363;28;20057;-72
2020/12/22 05:01:45;;;;;;;0.15;0.10;;;;;;;;;;5015735;28;20493;-72
2020/12/22 05:04:11;;;;;;;0.52;0.30;;;;;;;;;;5015515;28;20080;-73
2020/12/22 05:06:38;;;;;;;0.10;0.10;;;;;;;;;;5015497;28;20046;-73
2020/12/22 05:09:04;;;;;;;0.00;0.00;;;;;;;;;;5015625;28;20025;-72
2020/12/22 05:11:30;;;;;;;0.70;0.43;;;;;;;;;;5015500;28;20104;-73
2020/12/22 05:13:57;;;;;;;0.25;0.10;;;;;;;;;;5015915;28;20028;-72
2020/12/22 05:16:29;;;;;;;0.32;0.17;;;;;;;;;;5015448;28;20030;-74
2020/12/22 05:18:56;;;;;;;0.10;0.10;;;;;;;;;;5015771;28;20022;-74
2020/12/22 05:21:22;;;;;;;0.32;0.10;;;;;;;;;;5015465;28;20030;-74
2020/12/22 05:23:49;;;;;;;0.20;0.20;;;;;;;;;;5015469;28;20029;-74
2020/12/22 05:26:16;;;;;;;0.10;0.10;;;;;;;;;;5015475;28;20025;-74
2020/12/22 05:28:42;;;;;;;0.20;0.10;;;;;;;;;;5014097;28;20381;-73
2020/12/22 05:31:13;;;;;;;0.40;0.30;;;;;;;;;;5015360;28;20037;-74
2020/12/22 05:33:42;;;;;;;0.85;0.38;;;;;;;;;;5015341;28;20018;-74
2020/12/22 05:36:08;;;;;;;0.43;0.30;;;;;;;;;;5015510;28;20030;-74
2020/12/22 05:38:35;;;;;;;0.10;0.10;;;;;;;;;;5015320;28;20394;-74
2020/12/22 05:41:02;;;;;;;0.10;0.10;;;;;;;;;;5015206;28;20502;-74
2020/12/22 05:43:28;;;;;;;0.10;0.10;;;;;;;;;;5015305;28;20034;-74
2020/12/22 05:45:54;;;;;;;0.25;0.20;;;;;;;;;;5015367;28;20410;-74
2020/12/22 05:48:20;;;;;;;0.20;0.10;;;;;;;;;;5015081;28;20018;-74
2020/12/22 05:50:51;;;;;;;1.35;0.20;;;;;;;;;;5013704;28;20469;-74
2020/12/22 05:53:23;;;;;;;0.10;0.10;;;;;;;;;;5014974;28;20025;-74
2020/12/22 05:55:49;;;;;;;0.10;0.10;;;;;;;;;;5014954;28;20026;-73
2020/12/22 05:58:17;;;;;;;0.10;0.10;;;;;;;;;;5014787;28;20034;-74
2020/12/22 06:00:44;;;;;;;0.20;0.20;;;;;;;;;;5014820;28;20026;-74
2020/12/22 06:03:11;;;;;;;0.80;0.43;;;;;;;;;;5014786;28;20466;-74
2020/12/22 06:05:44;;;;;;;0.65;0.20;;;;;;;;;;5014537;28;20358;-74
2020/12/22 06:08:11;;;;;;;0.20;0.20;;;;;;;;;;5014728;28;20022;-74
2020/12/22 06:10:39;;;;;;;0.10;0.10;;;;;;;;;;5014676;28;20025;-73
2020/12/22 06:13:05;;;;;;;0.50;0.20;;;;;;;;;;5014605;28;20041;-74
2020/12/22 06:15:32;;;;;;;0.10;0.10;;;;;;;;;;5013370;28;20385;-74
2020/12/22 06:17:58;;;;;;;0.20;0.15;;;;;;;;;;5014735;28;20050;-74
2020/12/22 06:20:26;;;;;;;0.10;0.10;;;;;;;;;;5014681;28;20022;-74
2020/12/22 06:22:52;;;;;;;0.20;0.20;;;;;;;;;;5014333;28;20038;-74
2020/12/22 06:25:19;;;;;;;0.30;0.30;;;;;;;;;;5014336;28;20026;-74
2020/12/22 06:27:45;;;;;;;2.10;0.35;;;;;;;;;;5014593;28;20132;-74
2020/12/22 06:30:13;;;;;;;0.93;0.20;;;;;;;;;;5014470;28;20060;-74
2020/12/22 06:32:39;;;;;;;0.20;0.20;;;;;;;;;;5014253;28;20057;-74
2020/12/22 06:35:27;;;;;;;0.25;0.25;;;;;;;;;;5014209;28;20026;-74
2020/12/22 06:37:54;;;;;;;0.80;0.20;;;;;;;;;;5014143;28;20026;-74
2020/12/22 06:40:20;;;;;;;0.10;0.10;;;;;;;;;;5014180;28;20060;-74
2020/12/22 06:42:47;;;;;;;0.38;0.28;;;;;;;;;;5014123;28;20381;-74
2020/12/22 06:45:22;;;;;;;0.20;0.20;;;;;;;;;;5014079;28;20017;-74
2020/12/22 06:47:48;;;;;;;0.20;0.20;;;;;;;;;;5013997;28;20026;-75
2020/12/22 06:50:34;;;;;;;0.55;0.20;;;;;;;;;;5013947;28;20056;-74
2020/12/22 06:53:00;;;;;;;0.20;0.20;;;;;;;;;;5013791;28;20367;-74
2020/12/22 06:55:46;;;;;;;0.45;0.20;;;;;;;;;;5013984;28;20417;-74
2020/12/22 06:58:32;;;;;;;0.10;0.10;;;;;;;;;;5013679;28;20042;-74
2020/12/22 07:00:58;;;;;;;0.57;0.43;;;;;;;;;;5013771;28;20168;-74
2020/12/22 07:03:24;;;;;;;0.43;0.28;;;;;;;;;;5013825;28;20077;-74
2020/12/22 07:05:51;;;;;;;0.65;0.20;;;;;;;;;;5013743;28;20433;-74
2020/12/22 07:08:18;;;;;;;0.45;0.20;;;;;;;;;;5013613;28;20029;-74
2020/12/22 07:10:45;;;;;;;0.20;0.20;;;;;;;;;;5013706;28;20204;-74
2020/12/22 07:13:12;;;;;;;1.92;0.30;;;;;;;;;;5013587;28;20029;-74
2020/12/22 07:15:43;;;;;;;5.25;1.42;;;;;;;;;;5013484;28;20024;-74
2020/12/22 07:18:10;;;;;;;0.28;0.20;;;;;;;;;;5012905;28;20108;-74
2020/12/22 07:20:38;;;;;;;1.00;0.30;;;;;;;;;;5013404;28;20022;-74
2020/12/22 07:23:04;;;;;;;0.30;0.30;;;;;;;;;;5013363;28;20431;-74
2020/12/22 07:25:30;;;;;;;0.25;0.20;;;;;;;;;;5013454;28;20101;-75
2020/12/22 07:27:56;;;;;;;1.27;0.25;;;;;;;;;;5013452;28;20470;-75
2020/12/22 07:30:22;;;;;;;0.40;0.20;;;;;;;;;;5013305;28;20061;-74
2020/12/22 07:32:50;;;;;;;0.22;0.22;;;;;;;;;;5013183;28;20036;-75
2020/12/22 07:35:18;;;;;;;0.45;0.25;;;;;;;;;;5013173;28;20022;-74
2020/12/22 07:37:44;;;;;;;0.30;0.30;;;;;;;;;;5013093;28;20052;-76
2020/12/22 07:40:12;;;;;;;0.17;0.17;;;;;;;;;;5013247;28;20104;-76
2020/12/22 07:42:38;;;;;;;0.10;0.10;;;;;;;;;;5012977;28;20492;-76
2020/12/22 07:45:08;;;;;;;0.40;0.40;;;;;;;;;;5013261;28;20080;-76
2020/12/22 07:47:34;;;;;;;0.30;0.30;;;;;;;;;;5013060;28;20022;-76
2020/12/22 07:50:16;;;;;;;0.30;0.20;;;;;;;;;;5013057;28;20036;-76
2020/12/22 07:52:43;;;;;;;0.20;0.20;;;;;;;;;;5011769;28;20032;-75
2020/12/22 07:55:09;;;;;;;0.20;0.20;;;;;;;;;;5012964;28;20026;-76
2020/12/22 07:57:39;;;;;;;0.25;0.15;;;;;;;;;;5013213;28;20021;-77
2020/12/22 08:00:07;;;;;;;0.20;0.20;;;;;;;;;;5011475;28;20042;-76
2020/12/22 08:02:33;;;;;;;2.03;0.32;;;;;;;;;;5013029;28;20038;-76
2020/12/22 08:05:12;;;;;;;0.45;0.30;;;;;;;;;;5012994;28;20089;-76
2020/12/22 08:07:39;;;;;;;0.20;0.20;;;;;;;;;;5012782;28;20022;-76
2020/12/22 08:10:09;;;;;;;0.10;0.10;;;;;;;;;;5012640;28;20030;-76
2020/12/22 08:12:36;;;;;;;0.20;0.20;;;;;;;;;;5012709;28;20042;-76
2020/12/22 08:15:02;;;;;;;0.43;0.10;;;;;;;;;;5012674;28;20022;-76
2020/12/22 08:17:28;;;;;;;0.32;0.30;;;;;;;;;;5011923;28;20084;-76
2020/12/22 08:19:54;;;;;;;0.15;0.15;;;;;;;;;;5013037;28;20014;-76
2020/12/22 08:22:21;;;;;;;0.20;0.20;;;;;;;;;;5012620;28;20466;-76
2020/12/22 08:24:47;;;;;;;0.40;0.10;;;;;;;;;;5012692;28;20030;-76
2020/12/22 08:27:13;;;;;;;0.10;0.10;;;;;;;;;;5012646;28;20018;-76
2020/12/22 08:29:42;;;;;;;0.10;0.10;;;;;;;;;;5012804;28;20030;-76
2020/12/22 08:32:08;;;;;;;0.63;0.10;;;;;;;;;;5016528;28;20033;-76
2020/12/22 08:34:34;;;;;;;0.20;0.17;;;;;;;;;;5016573;28;20022;-76
2020/12/22 08:37:09;;;;;;;0.10;0.10;;;;;;;;;;5016450;28;20056;-76
2020/12/22 08:39:39;;;;;;;0.10;0.10;;;;;;;;;;5016306;28;20033;-76
2020/12/22 08:42:07;;;;;;;0.10;0.10;;;;;;;;;;5016300;28;20447;-76
2020/12/22 08:44:33;;;;;;;0.25;0.20;;;;;;;;;;5016478;28;20043;-76
2020/12/22 08:47:10;;;;;;;1.27;0.20;;;;;;;;;;5016271;28;20022;-76
2020/12/22 08:49:36;;;;;;;0.20;0.17;;;;;;;;;;5016133;28;20037;-76
2020/12/22 08:52:15;;;;;;;0.40;0.20;;;;;;;;;;5016222;28;20421;-76
2020/12/22 08:54:42;;;;;;;0.90;0.50;;;;;;;;;;5016197;28;20058;-76
2020/12/22 08:57:15;;;;;;;0.25;0.20;;;;;;;;;;5016212;28;20076;-76
2020/12/22 08:59:41;;;;;;;0.28;0.28;;;;;;;;;;5015942;28;20116;-76
2020/12/22 09:02:07;;;;;;;0.13;0.13;;;;;;;;;;5015922;28;20053;-76
2020/12/22 09:04:33;;;;;;;0.20;0.13;;;;;;;;;;5015958;28;20018;-76
2020/12/22 09:07:01;;;;;;;0.40;0.20;;;;;;;;;;5015968;28;20026;-76
2020/12/22 09:09:30;;;;;;;0.20;0.20;;;;;;;;;;5016089;28;20025;-76
2020/12/22 09:12:09;;;;;;;1.30;0.30;;;;;;;;;;5016089;28;20536;-76
2020/12/22 09:14:38;;;;;;;0.32;0.30;;;;;;;;;;5015784;28;20382;-76
2020/12/22 09:17:05;;;;;;;1.02;0.38;;;;;;;;;;5015648;28;20075;-76
2020/12/22 09:19:47;;;;;;;0.40;0.40;;;;;;;;;;5015660;28;20034;-76
2020/12/22 09:22:14;;;;;;;0.77;0.70;;;;;;;;;;5015523;28;20030;-76
2020/12/22 09:24:41;;;;;;;0.20;0.20;;;;;;;;;;5015302;28;20084;-76
2020/12/22 09:27:11;;;;;;;0.10;0.10;;;;;;;;;;5014084;28;20025;-76
2020/12/22 09:29:41;;;;;;;1.65;0.43;;;;;;;;;;5015515;28;20033;-76
2020/12/22 09:32:08;;;;;;;0.20;0.20;;;;;;;;;;5015366;28;20067;-76
2020/12/22 09:34:36;;;;;;;0.10;0.10;;;;;;;;;;5015389;28;20037;-76
2020/12/22 09:37:03;;;;;;;0.20;0.20;;;;;;;;;;5015302;28;20029;-76
2020/12/22 09:39:30;;;;;;;0.30;0.30;;;;;;;;;;5013919;28;20025;-75
2020/12/22 09:41:56;;;;;;;1.02;0.35;;;;;;;;;;5014738;28;20026;-74
2020/12/22 09:44:23;;;;;;;0.55;0.30;;;;;;;;;;5015146;28;20477;-74
2020/12/22 09:46:50;;;;;;;0.13;0.13;;;;;;;;;;5015108;28;20436;-74
2020/12/22 09:49:17;;;;;;;0.32;0.20;;;;;;;;;;5013688;28;20036;-74
2020/12/22 09:51:43;;;;;;;0.40;0.30;;;;;;;;;;5014966;28;20014;-74
2020/12/22 09:54:09;;;;;;;0.60;0.40;;;;;;;;;;5014898;28;20025;-74
2020/12/22 09:56:35;;;;;;;1.65;0.30;;;;;;;;;;5014921;28;20022;-74
2020/12/22 09:59:02;;;;;;;0.10;0.10;;;;;;;;;;5014755;28;20409;-74
2020/12/22 10:01:28;;;;;;;0.10;0.10;;;;;;;;;;5014892;28;20022;-74
2020/12/22 10:03:54;;;;;;;1.05;0.30;;;;;;;;;;5014889;28;20113;-74
2020/12/22 10:06:21;;;;;;;0.30;0.30;;;;;;;;;;5014727;28;20026;-74
2020/12/22 10:08:48;;;;;;;0.40;0.30;;;;;;;;;;5014543;28;20029;-74
2020/12/22 10:11:14;;;;;;;0.77;0.40;;;;;;;;;;5014749;28;20033;-74
2020/12/22 10:13:41;;;;;;;1.15;0.20;;;;;;;;;;5014629;28;20037;-74
2020/12/22 10:16:25;;;;;;;0.30;0.30;;;;;;;;;;5014550;28;20093;-74
2020/12/22 10:18:51;;;;;;;0.20;0.20;;;;;;;;;;5014597;28;20037;-75
2020/12/22 10:21:18;;;;;;;1.27;0.20;;;;;;;;;;5014479;28;20101;-74
2020/12/22 10:23:46;;;;;;;0.30;0.30;;;;;;;;;;5014896;28;20053;-74
2020/12/22 10:26:13;;;;;;;1.15;0.40;;;;;;;;;;5014305;28;20064;-74
2020/12/22 10:28:40;;;;;;;0.75;0.20;;;;;;;;;;5014271;28;20053;-74
2020/12/22 10:31:07;;;;;;;0.28;0.28;;;;;;;;;;5014296;28;20025;-74
2020/12/22 10:33:33;;;;;;;0.20;0.20;;;;;;;;;;5014252;28;20022;-74
2020/12/22 10:35:59;;;;;;;1.08;0.40;;;;;;;;;;5014136;28;20468;-74
2020/12/22 10:38:25;;;;;;;0.45;0.38;;;;;;;;;;5014308;28;20504;-74
2020/12/22 10:40:51;;;;;;;1.05;0.70;;;;;;;;;;5014113;28;20464;-74
2020/12/22 10:43:17;;;;;;;0.52;0.22;;;;;;;;;;5014095;28;20041;-74
2020/12/22 10:45:44;;;;;;;0.43;0.38;;;;;;;;;;5014090;28;20415;-74
2020/12/22 10:48:10;;;;;;;0.40;0.30;;;;;;;;;;5014044;28;20086;-74
2020/12/22 10:50:36;;;;;;;1.48;0.50;;;;;;;;;;5013961;28;20021;-75
2020/12/22 10:53:03;;;;;;;0.55;0.40;;;;;;;;;;5013107;28;20022;-74
2020/12/22 10:55:29;;;;;;;0.50;0.50;;;;;;;;;;5013916;28;20054;-74
2020/12/22 10:57:55;;;;;;;0.68;0.32;;;;;;;;;;5013864;28;20029;-74
2020/12/22 11:00:21;;;;;;;1.00;0.30;;;;;;;;;;5013781;28;20030;-74
2020/12/22 11:02:49;;;;;;;0.20;0.20;;;;;;;;;;5012379;28;20029;-75
2020/12/22 11:05:15;;;;;;;2.97;0.30;;;;;;;;;;5013591;28;20025;-75
2020/12/22 11:07:51;;;;;;;0.30;0.30;;;;;;;;;;5013545;28;20021;-74
2020/12/22 11:10:17;;;;;;;0.90;0.30;;;;;;;;;;5013547;28;20113;-74
2020/12/22 11:12:43;;;;;;;0.32;0.32;;;;;;;;;;5013600;28;20026;-74
2020/12/22 11:15:09;;;;;;;0.40;0.38;;;;;;;;;;5013505;28;20053;-74
2020/12/22 11:17:35;;;;;;;0.82;0.30;;;;;;;;;;5013438;28;20030;-74
2020/12/22 11:20:01;;;;;;;0.60;0.50;;;;;;;;;;5013480;28;20022;-74
2020/12/22 11:22:28;;;;;;;0.95;0.50;;;;;;;;;;5013838;28;20112;-74
2020/12/22 11:24:54;;;;;;;1.05;0.40;;;;;;;;;;5013532;28;20022;-74
2020/12/22 11:27:20;;;;;;;0.93;0.50;;;;;;;;;;5013328;28;20041;-75
2020/12/22 11:29:46;;;;;;;1.48;0.50;;;;;;;;;;5013333;28;20018;-74
2020/12/22 11:32:12;;;;;;;1.40;0.40;;;;;;;;;;5013218;28;20476;-74
2020/12/22 11:34:38;;;;;;;1.58;0.40;;;;;;;;;;5012008;28;20022;-74
2020/12/22 11:37:05;;;;;;;0.47;0.47;;;;;;;;;;5013303;28;20473;-74
2020/12/22 11:39:31;;;;;;;0.50;0.40;;;;;;;;;;5013418;28;20075;-74
2020/12/22 11:42:07;;;;;;;1.02;0.73;;;;;;;;;;5012015;28;20453;-74
2020/12/22 11:44:33;;;;;;;0.50;0.40;;;;;;;;;;5013070;28;20064;-74
2020/12/22 11:46:59;;;;;;;0.52;0.40;;;;;;;;;;5013066;28;20045;-74
2020/12/22 11:49:26;;;;;;;0.40;0.40;;;;;;;;;;5013253;28;20017;-74
2020/12/22 11:51:56;;;;;;;0.95;0.57;;;;;;;;;;5013196;28;20036;-74
2020/12/22 11:54:23;;;;;;;0.88;0.65;;;;;;;;;;5012919;28;20508;-75
2020/12/22 11:56:49;;;;;;;0.70;0.57;;;;;;;;;;5012895;28;20026;-75
2020/12/22 11:59:16;;;;;;;0.32;0.32;;;;;;;;;;5012803;28;20050;-74
2020/12/22 12:01:42;;;;;;;0.93;0.50;;;;;;;;;;5013039;28;20053;-74
2020/12/22 12:04:08;;;;;;;0.85;0.40;;;;;;;;;;5013765;28;20034;-74
2020/12/22 12:06:34;;;;;;;0.60;0.50;;;;;;;;;;5017157;28;20029;-74
2020/12/22 12:09:00;;;;;;;0.50;0.40;;;;;;;;;;5016912;28;20032;-73
2020/12/22 12:11:26;;;;;;;0.32;0.32;;;;;;;;;;5017041;28;20075;-74
2020/12/22 12:13:52;;;;;;;0.82;0.40;;;;;;;;;;5016872;28;20071;-74
2020/12/22 12:16:18;;;;;;;0.43;0.40;;;;;;;;;;5016750;28;20109;-74
2020/12/22 12:18:45;;;;;;;1.75;0.40;;;;;;;;;;5016818;28;20033;-74
2020/12/22 12:21:15;;;;;;;1.42;0.73;;;;;;;;;;5016802;28;20409;-74
2020/12/22 12:23:42;;;;;;;1.20;0.65;;;;;;;;;;5016658;28;20037;-74
2020/12/22 12:26:08;;;;;;;0.40;0.40;;;;;;;;;;5016648;28;20461;-74
2020/12/22 12:28:34;;;;;;;0.40;0.30;;;;;;;;;;5016501;28;20470;-74
2020/12/22 12:31:00;;;;;;;1.10;0.47;;;;;;;;;;5015209;28;20489;-74
2020/12/22 12:33:26;;;;;;;0.50;0.40;;;;;;;;;;5016675;28;20029;-74
2020/12/22 12:35:52;;;;;;;0.32;0.30;;;;;;;;;;5016424;28;20466;-74
2020/12/22 12:38:18;;;;;;;0.88;0.40;;;;;;;;;;5016437;28;20045;-74
2020/12/22 12:40:44;;;;;;;0.50;0.50;;;;;;;;;;5016323;28;20057;-74
2020/12/22 12:43:10;;;;;;;0.80;0.40;;;;;;;;;;5016207;28;20129;-74
2020/12/22 12:45:36;;;;;;;1.40;0.63;;;;;;;;;;5016278;28;20527;-74
2020/12/22 12:48:02;;;;;;;0.55;0.45;;;;;;;;;;5016219;28;20462;-74
2020/12/22 12:50:28;;;;;;;0.52;0.40;;;;;;;;;;5016227;28;20022;-74
2020/12/22 12:52:54;;;;;;;0.52;0.40;;;;;;;;;;5016313;28;20401;-74
2020/12/22 12:55:20;;;;;;;1.45;0.60;;;;;;;;;;5016141;28;20474;-74
2020/12/22 12:57:46;;;;;;;0.60;0.50;;;;;;;;;;5016033;28;20033;-74
2020/12/22 13:00:12;;;;;;;0.40;0.40;;;;;;;;;;5015766;28;20077;-74
2020/12/22 13:02:39;;;;;;;0.55;0.32;;;;;;;;;;5015779;28;20030;-74
2020/12/22 13:05:05;;;;;;;0.50;0.43;;;;;;;;;;5015998;28;20044;-74
2020/12/22 13:07:32;;;;;;;0.55;0.47;;;;;;;;;;5015889;28;20018;-74
2020/12/22 13:09:58;;;;;;;0.73;0.60;;;;;;;;;;5015786;28;20080;-74
2020/12/22 13:12:24;;;;;;;0.70;0.47;;;;;;;;;;5015854;28;20377;-74
2020/12/22 13:14:51;;;;;;;0.68;0.60;;;;;;;;;;5015723;28;20049;-74
2020/12/22 13:17:17;;;;;;;0.95;0.70;;;;;;;;;;5014817;28;20355;-74
2020/12/22 13:19:43;;;;;;;0.47;0.35;;;;;;;;;;5015689;28;20462;-74
2020/12/22 13:22:09;;;;;;;0.20;0.20;;;;;;;;;;5015523;28;20484;-74
2020/12/22 13:24:35;;;;;;;0.43;0.35;;;;;;;;;;5015568;28;20041;-74
2020/12/22 13:27:01;;;;;;;0.70;0.40;;;;;;;;;;5015509;28;20022;-74
2020/12/22 13:29:27;;;;;;;0.63;0.60;;;;;;;;;;5015743;28;20034;-74
2020/12/22 13:31:53;;;;;;;1.60;0.50;;;;;;;;;;5015771;28;20462;-74
2020/12/22 13:34:19;;;;;;;0.65;0.45;;;;;;;;;;5015504;28;20109;-74
2020/12/22 13:36:45;;;;;;;0.40;0.40;;;;;;;;;;5013946;28;20458;-74
2020/12/22 13:39:11;;;;;;;0.65;0.50;;;;;;;;;;5013935;28;20022;-74
2020/12/22 13:41:37;;;;;;;0.40;0.30;;;;;;;;;;5015402;28;20026;-74
2020/12/22 13:44:03;;;;;;;0.43;0.30;;;;;;;;;;5015133;28;20029;-74
2020/12/22 13:46:29;;;;;;;1.17;0.50;;;;;;;;;;5015090;28;20022;-74
2020/12/22 13:48:55;;;;;;;1.40;0.80;;;;;;;;;;5015353;28;20029;-74
2020/12/22 13:51:22;;;;;;;0.68;0.50;;;;;;;;;;5015063;28;20539;-74
2020/12/22 13:53:48;;;;;;;0.73;0.40;;;;;;;;;;5015163;28;20040;-74
2020/12/22 13:56:17;;;;;;;1.45;0.50;;;;;;;;;;5014133;28;20022;-74
2020/12/22 13:58:44;;;;;;;0.90;0.40;;;;;;;;;;5014741;28;20402;-74
2020/12/22 14:01:10;;;;;;;1.15;0.40;;;;;;;;;;5014922;28;20022;-74
2020/12/22 14:03:37;;;;;;;1.60;0.40;;;;;;;;;;5014721;28;20477;-74
2020/12/22 14:06:03;;;;;;;1.10;0.40;;;;;;;;;;5014810;28;20017;-74
2020/12/22 14:08:29;;;;;;;1.63;0.40;;;;;;;;;;5014631;28;20041;-73
2020/12/22 14:10:55;;;;;;;0.60;0.45;;;;;;;;;;5014833;28;20026;-73
2020/12/22 14:13:21;;;;;;;0.65;0.45;;;;;;;;;;5014559;28;20367;-74
2020/12/22 14:15:47;;;;;;;0.82;0.60;;;;;;;;;;5014567;28;20022;-74
2020/12/22 14:18:13;;;;;;;1.52;0.70;;;;;;;;;;5014308;28;20059;-73
2020/12/22 14:20:40;;;;;;;0.95;0.93;;;;;;;;;;5014089;28;20029;-74
2020/12/22 14:23:06;;;;;;;2.58;1.25;;;;;;;;;;5013019;28;20359;-74
2020/12/22 14:25:32;;;;;;;2.15;1.20;;;;;;;;;;5014591;28;20029;-74
2020/12/22 14:27:58;;;;;;;2.00;1.23;;;;;;;;;;5014238;28;20104;-74
2020/12/22 14:30:24;;;;;;;1.48;1.02;;;;;;;;;;5014465;28;20474;-75
2020/12/22 14:32:50;;;;;;;2.33;1.20;;;;;;;;;;5013225;28;20366;-75
2020/12/22 14:35:16;;;;;;;3.55;1.20;;;;;;;;;;5014221;28;20108;-76
2020/12/22 14:37:42;;;;;;;2.33;1.30;;;;;;;;;;5014239;28;20025;-76
2020/12/22 14:40:08;;;;;;;2.55;1.48;;;;;;;;;;5014145;28;20029;-75
2020/12/22 14:42:36;;;;;;;1.88;1.38;;;;;;;;;;5031480;28;20026;-74